createdAt,value
2022-10-28T00:51:03.456Z,99142.25
2022-10-28T00:52:11.209Z,99138.81
2022-10-28T00:53:17.480Z,99143.06
2022-10-28T00:54:19.655Z,99137.72
2022-10-28T00:55:21.812Z,99145.72
2022-10-28T00:57:34.959Z,99141.47
2022-10-28T00:58:37.241Z,99141.97
2022-10-28T00:59:41.377Z,99143.06
2022-10-28T01:00:43.508Z,99144.16
2022-10-28T01:01:46.367Z,99142.59
2022-10-28T01:02:49.603Z,99145.88
2022-10-28T01:03:51.164Z,99148.56
2022-10-28T01:04:53.309Z,99156.09
2022-10-28T01:05:56.622Z,99148.09
2022-10-28T01:07:00.251Z,99147.63
2022-10-28T01:08:02.894Z,99144.78
2022-10-28T01:09:04.498Z,99149.34
2022-10-28T01:10:08.304Z,99147.75
2022-10-28T01:11:09.629Z,99144.16
2022-10-28T01:12:14.463Z,99145.72
2022-10-28T01:13:31.324Z,99146.34
2022-10-28T01:14:51.346Z,99148.69
2022-10-28T01:15:59.257Z,99156.84
2022-10-28T01:17:22.060Z,99153.53
2022-10-28T01:18:23.775Z,99151.03
2022-10-28T01:19:25.409Z,99153.19
2022-10-28T01:20:36.145Z,99150.34
2022-10-28T01:22:00.206Z,99142.03
2022-10-28T01:23:10.473Z,99144.84
2022-10-28T01:24:15.791Z,99137.75
2022-10-28T01:25:24.082Z,99141.03
2022-10-28T01:26:44.287Z,99134.44
2022-10-28T01:27:51.324Z,99134.28
2022-10-28T01:28:56.291Z,99125.81
2022-10-28T01:30:02.845Z,99132.06
2022-10-28T01:31:10.108Z,99138.03
2022-10-28T01:32:35.257Z,99131.44
2022-10-28T01:33:52.968Z,99124.84
2022-10-28T01:35:17.341Z,99126.25
2022-10-28T01:36:43.447Z,99133.94
2022-10-28T01:37:45.248Z,99129.22
2022-10-28T01:39:05.083Z,99133.00
2022-10-28T01:40:27.389Z,99136.44
2022-10-28T01:41:28.665Z,99139.41
2022-10-28T01:42:45.762Z,99134.38
2022-10-28T01:43:53.162Z,99137.66
2022-10-28T01:45:12.201Z,99141.41
2022-10-28T01:46:24.859Z,99146.28
2022-10-28T01:47:28.817Z,99140.47
2022-10-28T01:48:39.254Z,99138.09
2022-10-28T01:49:45.120Z,99132.63
2022-10-28T01:50:50.494Z,99140.09
2022-10-28T01:51:54.146Z,99139.94
2022-10-28T01:52:57.946Z,99140.25
2022-10-28T01:54:01.445Z,99136.31
2022-10-28T01:55:15.773Z,99141.94
2022-10-28T01:56:19.421Z,99144.13
2022-10-28T01:57:22.059Z,99141.75
2022-10-28T01:58:26.467Z,99145.53
2022-10-28T01:59:29.086Z,99134.06
2022-10-28T02:00:31.927Z,99130.16
2022-10-28T02:01:34.045Z,99128.28
2022-10-28T02:02:37.101Z,99129.38
2022-10-28T02:03:38.820Z,99132.03
2022-10-28T02:04:40.125Z,99121.38
2022-10-28T02:05:44.505Z,99120.88
2022-10-28T02:06:47.933Z,99125.44
2022-10-28T02:07:51.194Z,99123.56
2022-10-28T02:08:52.473Z,99120.09
2022-10-28T02:09:53.802Z,99122.00
2022-10-28T02:11:01.028Z,99121.50
2022-10-28T02:12:23.598Z,99129.75
2022-10-28T02:13:28.126Z,99126.13
2022-10-28T02:14:48.080Z,99123.78
2022-10-28T02:16:02.664Z,99127.03
2022-10-28T02:17:22.530Z,99124.69
2022-10-28T02:18:29.453Z,99131.72
2022-10-28T02:19:48.821Z,99124.81
2022-10-28T02:20:52.542Z,99128.91
2022-10-28T02:22:04.689Z,99132.63
2022-10-28T02:23:27.855Z,99127.28
2022-10-28T02:24:29.140Z,99130.28
2022-10-28T02:25:33.775Z,99119.16
2022-10-28T02:26:35.079Z,99124.28
2022-10-28T02:27:36.364Z,99122.72
2022-10-28T02:28:42.171Z,99126.16
2022-10-28T02:29:48.827Z,99121.31
2022-10-28T02:30:55.377Z,99121.94
2022-10-28T02:31:59.826Z,99116.91
2022-10-28T02:33:03.433Z,99123.63
2022-10-28T02:34:07.490Z,99120.97
2022-10-28T02:35:12.771Z,99116.44
2022-10-28T02:36:16.081Z,99119.09
2022-10-28T02:37:20.981Z,99115.81
2022-10-28T02:38:25.452Z,99113.13
2022-10-28T02:39:30.809Z,99114.59
2022-10-28T02:40:33.195Z,99124.47
2022-10-28T02:41:41.390Z,99114.59
2022-10-28T02:42:48.642Z,99107.88
2022-10-28T02:43:53.524Z,99111.03
2022-10-28T02:44:57.834Z,99108.66
2022-10-28T02:46:00.123Z,99104.94
2022-10-28T02:47:05.922Z,99108.06
2022-10-28T02:48:09.761Z,99098.19
2022-10-28T02:49:12.597Z,99101.03
2022-10-28T02:50:16.955Z,99094.31
2022-10-28T02:51:21.472Z,99102.47
2022-10-28T02:52:25.904Z,99102.47
2022-10-28T02:53:31.329Z,99102.66
2022-10-28T02:54:36.084Z,99108.00
2022-10-28T02:55:39.873Z,99105.59
2022-10-28T02:56:53.573Z,99104.81
2022-10-28T02:57:56.995Z,99110.16
2022-10-28T02:58:58.318Z,99110.66
2022-10-28T03:00:01.068Z,99105.00
2022-10-28T03:01:02.701Z,99105.78
2022-10-28T03:02:04.123Z,99110.34
2022-10-28T03:03:05.507Z,99107.34
2022-10-28T03:04:06.839Z,99106.28
2022-10-28T03:05:08.358Z,99105.69
2022-10-28T03:06:09.645Z,99106.97
2022-10-28T03:07:10.965Z,99112.94
2022-10-28T03:08:12.291Z,99100.59
2022-10-28T03:09:13.666Z,99103.72
2022-10-28T03:10:15.494Z,99104.22
2022-10-28T03:11:16.784Z,99099.34
2022-10-28T03:12:18.109Z,99102.03
2022-10-28T03:13:19.424Z,99110.47
2022-10-28T03:14:20.718Z,99102.97
2022-10-28T03:15:22.111Z,99110.34
2022-10-28T03:16:23.471Z,99103.16
2022-10-28T03:17:24.790Z,99106.59
2022-10-28T03:18:26.129Z,99111.94
2022-10-28T03:19:27.514Z,99106.59
2022-10-28T03:20:28.849Z,99111.94
2022-10-28T03:21:30.266Z,99111.81
2022-10-28T03:22:31.592Z,99115.06
2022-10-28T03:23:32.884Z,99116.63
2022-10-28T03:24:34.201Z,99118.22
2022-10-28T03:25:35.549Z,99119.81
2022-10-28T03:26:36.871Z,99116.34
2022-10-28T03:27:41.287Z,99112.91
2022-10-28T03:28:42.613Z,99117.41
2022-10-28T03:29:45.968Z,99116.63
2022-10-28T03:30:47.504Z,99128.91
2022-10-28T03:31:48.821Z,99112.91
2022-10-28T03:32:50.248Z,99118.22
2022-10-28T03:33:51.786Z,99120.09
2022-10-28T03:34:53.102Z,99117.13
2022-10-28T03:35:54.405Z,99117.59
2022-10-28T03:36:55.790Z,99117.28
2022-10-28T03:37:57.085Z,99111.66
2022-10-28T03:38:58.418Z,99114.97
2022-10-28T03:39:59.733Z,99111.22
2022-10-28T03:41:01.052Z,99109.03
2022-10-28T03:42:02.361Z,99117.50
2022-10-28T03:43:03.705Z,99119.06
2022-10-28T03:44:05.129Z,99117.97
2022-10-28T03:45:06.660Z,99111.25
2022-10-28T03:46:07.999Z,99108.41
2022-10-28T03:47:09.359Z,99111.69
2022-10-28T03:48:10.771Z,99109.81
2022-10-28T03:49:12.056Z,99119.41
2022-10-28T03:50:13.454Z,99106.53
2022-10-28T03:51:14.774Z,99105.16
2022-10-28T03:52:16.131Z,99107.19
2022-10-28T03:53:17.446Z,99104.53
2022-10-28T03:54:18.750Z,99105.31
2022-10-28T03:55:20.040Z,99095.59
2022-10-28T03:56:21.353Z,99093.56
2022-10-28T03:57:22.724Z,99083.38
2022-10-28T03:58:24.098Z,99077.41
2022-10-28T03:59:25.419Z,99076.03
2022-10-28T04:00:27.171Z,99075.38
2022-10-28T04:01:28.742Z,99063.16
2022-10-28T04:02:30.253Z,99071.94
2022-10-28T04:03:32.017Z,99077.75
2022-10-28T04:04:33.540Z,99080.28
2022-10-28T04:05:34.852Z,99077.75
2022-10-28T04:06:36.177Z,99080.13
2022-10-28T04:07:37.495Z,99078.22
2022-10-28T04:08:38.970Z,99078.84
2022-10-28T04:09:41.430Z,99084.50
2022-10-28T04:10:47.332Z,99085.28
2022-10-28T04:11:49.025Z,99093.63
2022-10-28T04:16:56.354Z,99081.84
2022-10-28T04:17:58.022Z,99080.28
2022-10-28T04:18:59.444Z,99078.69
2022-10-28T04:20:00.816Z,99083.41
2022-10-28T04:21:02.542Z,99084.50
2022-10-28T04:26:16.376Z,99068.34
2022-10-28T04:27:17.741Z,99077.28
2022-10-28T04:28:19.094Z,99064.41
2022-10-28T04:29:20.411Z,99061.75
2022-10-28T04:30:22.110Z,99065.69
2022-10-28T04:31:23.439Z,99062.22
2022-10-28T04:32:24.728Z,99058.13
2022-10-28T04:33:26.054Z,99062.38
2022-10-28T04:34:27.376Z,99053.91
2022-10-28T04:35:28.698Z,99050.91
2022-10-28T04:36:30.017Z,99060.63
2022-10-28T04:37:31.343Z,99066.31
2022-10-28T04:38:32.728Z,99060.19
2022-10-28T04:39:34.143Z,99055.78
2022-10-28T04:40:35.434Z,99049.47
2022-10-28T04:41:36.731Z,99053.88
2022-10-28T04:42:38.136Z,99053.72
2022-10-28T04:43:39.475Z,99058.00
2022-10-28T04:44:40.814Z,99053.13
2022-10-28T04:45:42.123Z,99058.44
2022-10-28T04:46:43.416Z,99055.78
2022-10-28T04:47:44.766Z,99058.44
2022-10-28T04:48:47.005Z,99062.84
2022-10-28T04:49:48.777Z,99067.25
2022-10-28T04:50:50.133Z,99066.78
2022-10-28T04:51:51.465Z,99069.28
2022-10-28T04:52:53.068Z,99076.03
2022-10-28T04:53:54.549Z,99076.69
2022-10-28T04:54:55.893Z,99085.28
2022-10-28T04:55:57.926Z,99079.66
2022-10-28T04:56:59.339Z,99079.34
2022-10-28T04:58:01.097Z,99080.44
2022-10-28T04:59:02.447Z,99077.28
2022-10-28T05:00:04.597Z,99073.50
2022-10-28T05:01:09.565Z,99078.06
2022-10-28T05:02:11.041Z,99072.72
2022-10-28T05:03:12.459Z,99078.38
2022-10-28T05:04:13.805Z,99069.09
2022-10-28T05:06:21.561Z,99063.63
2022-10-28T05:07:23.692Z,99052.47
2022-10-28T05:08:25.122Z,99059.38
2022-10-28T05:09:28.358Z,99050.91
2022-10-28T05:10:32.558Z,99046.34
2022-10-28T05:11:33.900Z,99047.75
2022-10-28T05:12:35.228Z,99040.53
2022-10-28T05:13:36.618Z,99040.53
2022-10-28T05:14:37.906Z,99039.44
2022-10-28T05:15:39.221Z,99034.75
2022-10-28T05:16:40.561Z,99025.97
2022-10-28T05:17:45.702Z,99021.06
2022-10-28T05:18:47.459Z,99022.63
2022-10-28T05:19:48.785Z,99024.19
2022-10-28T05:20:50.098Z,99028.47
2022-10-28T05:21:51.391Z,99032.53
2022-10-28T05:22:54.127Z,99030.81
2022-10-28T05:23:55.876Z,99035.38
2022-10-28T05:24:57.169Z,99027.50
2022-10-28T05:25:58.531Z,99022.94
2022-10-28T05:27:00.086Z,99022.47
2022-10-28T05:28:01.587Z,99019.97
2022-10-28T05:29:02.923Z,99017.16
2022-10-28T05:30:04.619Z,99028.94
2022-10-28T05:31:05.978Z,99030.00
2022-10-28T05:32:07.336Z,99019.03
2022-10-28T05:33:08.705Z,99032.06
2022-10-28T05:34:10.037Z,99025.59
2022-10-28T05:35:11.712Z,99034.88
2022-10-28T05:36:13.037Z,99037.72
2022-10-28T05:37:14.356Z,99034.88
2022-10-28T05:38:15.689Z,99039.63
2022-10-28T05:39:17.350Z,99046.50
2022-10-28T05:40:18.934Z,99036.78
2022-10-28T05:41:21.969Z,99035.06
2022-10-28T05:42:24.474Z,99034.91
2022-10-28T05:43:25.839Z,99042.44
2022-10-28T05:44:27.148Z,99038.81
2022-10-28T05:46:34.791Z,99043.38
2022-10-28T05:47:39.217Z,99041.19
2022-10-28T05:48:41.451Z,99046.03
2022-10-28T05:49:42.798Z,99042.28
2022-10-28T05:50:44.122Z,99041.00
2022-10-28T05:51:45.845Z,99048.06
2022-10-28T05:52:48.341Z,99045.41
2022-10-28T05:53:49.662Z,99046.19
2022-10-28T05:54:51.005Z,99044.16
2022-10-28T05:55:52.516Z,99053.41
2022-10-28T05:56:53.901Z,99053.41
2022-10-28T05:57:56.201Z,99055.59
2022-10-28T05:58:57.929Z,99058.28
2022-10-28T05:59:59.245Z,99059.06
2022-10-28T06:01:00.577Z,99054.66
2022-10-28T06:02:01.992Z,99057.66
2022-10-28T06:03:04.220Z,99054.47
2022-10-28T06:04:05.554Z,99054.19
2022-10-28T06:05:07.225Z,99057.66
2022-10-28T06:06:08.539Z,99056.09
2022-10-28T06:07:09.881Z,99051.03
2022-10-28T06:08:14.512Z,99054.34
2022-10-28T06:09:15.836Z,99048.53
2022-10-28T06:10:17.197Z,99049.94
2022-10-28T06:11:17.033Z,99048.34
2022-10-28T06:12:18.373Z,99046.50
2022-10-28T06:13:19.956Z,99051.81
2022-10-28T06:14:21.259Z,99049.63
2022-10-28T06:15:22.585Z,99049.31
2022-10-28T06:16:23.880Z,99053.56
2022-10-28T06:17:25.672Z,99045.25
2022-10-28T06:18:26.973Z,99049.47
2022-10-28T06:19:28.326Z,99051.81
2022-10-28T06:20:29.668Z,99045.25
2022-10-28T06:21:31.025Z,99056.25
2022-10-28T06:22:32.341Z,99050.56
2022-10-28T06:23:33.795Z,99046.97
2022-10-28T06:24:35.124Z,99046.97
2022-10-28T06:25:36.955Z,99047.94
2022-10-28T06:26:38.304Z,99051.84
2022-10-28T06:27:39.606Z,99047.28
2022-10-28T06:28:40.897Z,99051.69
2022-10-28T06:29:42.233Z,99050.13
2022-10-28T06:30:43.534Z,99041.66
2022-10-28T06:31:44.941Z,99051.84
2022-10-28T06:32:46.284Z,99054.34
2022-10-28T06:33:47.589Z,99051.22
2022-10-28T06:34:48.907Z,99048.06
2022-10-28T06:35:54.734Z,99051.56
2022-10-28T06:36:56.038Z,99048.88
2022-10-28T06:37:57.463Z,99050.13
2022-10-28T06:38:58.825Z,99054.84
2022-10-28T06:40:00.154Z,99049.81
2022-10-28T06:41:01.602Z,99049.81
2022-10-28T06:42:03.001Z,99056.56
2022-10-28T06:43:05.159Z,99054.50
2022-10-28T06:44:06.548Z,99053.28
2022-10-28T06:45:08.053Z,99050.59
2022-10-28T06:46:09.400Z,99049.66
2022-10-28T06:47:12.697Z,99048.06
2022-10-28T06:48:14.080Z,99052.63
2022-10-28T06:49:15.440Z,99046.84
2022-10-28T06:50:16.970Z,99038.81
2022-10-28T06:51:18.278Z,99041.00
2022-10-28T06:52:19.771Z,99046.34
2022-10-28T06:53:21.276Z,99043.06
2022-10-28T06:54:22.788Z,99048.56
2022-10-28T06:55:27.389Z,99041.34
2022-10-28T06:56:28.814Z,99041.34
2022-10-28T06:57:30.520Z,99046.03
2022-10-28T06:58:31.833Z,99051.38
2022-10-28T06:59:33.148Z,99046.81
2022-10-28T07:00:34.586Z,99046.34
2022-10-28T07:01:36.006Z,99045.25
2022-10-28T07:02:41.391Z,99046.97
2022-10-28T07:03:46.269Z,99047.44
2022-10-28T07:04:47.615Z,99044.47
2022-10-28T07:05:49.727Z,99038.97
2022-10-28T07:06:54.798Z,99044.66
2022-10-28T07:07:56.490Z,99052.94
2022-10-28T07:08:58.112Z,99049.47
2022-10-28T07:09:59.620Z,99053.91
2022-10-28T07:11:00.968Z,99056.25
2022-10-28T07:12:05.108Z,99047.00
2022-10-28T07:13:07.157Z,99060.00
2022-10-28T07:14:08.481Z,99067.72
2022-10-28T07:15:10.221Z,99062.06
2022-10-28T07:16:11.530Z,99070.06
2022-10-28T07:17:12.844Z,99076.53
2022-10-28T07:18:14.184Z,99081.53
2022-10-28T07:19:17.984Z,99091.91
2022-10-28T07:20:21.904Z,99108.69
2022-10-28T07:21:23.201Z,99119.09
2022-10-28T07:22:25.819Z,99128.66
2022-10-28T07:23:27.557Z,99128.97
2022-10-28T07:24:28.881Z,99123.63
2022-10-28T07:25:30.419Z,99115.47
2022-10-28T07:26:31.748Z,99104.91
2022-10-28T07:27:33.067Z,99103.50
2022-10-28T07:28:34.408Z,99106.63
2022-10-28T07:29:35.760Z,99116.53
2022-10-28T07:30:37.082Z,99116.53
2022-10-28T07:31:38.415Z,99115.44
2022-10-28T07:32:39.761Z,99116.25
2022-10-28T07:33:41.203Z,99113.25
2022-10-28T07:34:42.538Z,99113.72
2022-10-28T07:35:43.873Z,99113.72
2022-10-28T07:36:45.198Z,99102.06
2022-10-28T07:37:46.924Z,99098.00
2022-10-28T07:38:48.911Z,99111.97
2022-10-28T07:39:50.281Z,99104.09
2022-10-28T07:40:51.620Z,99103.47
2022-10-28T07:41:52.975Z,99107.06
2022-10-28T07:42:54.529Z,99100.00
2022-10-28T07:43:56.062Z,99105.50
2022-10-28T07:44:57.379Z,99109.09
2022-10-28T07:45:58.689Z,99103.88
2022-10-28T07:47:00.053Z,99101.34
2022-10-28T07:48:01.566Z,99095.06
2022-10-28T07:49:03.443Z,99102.91
2022-10-28T07:50:06.504Z,99098.16
2022-10-28T07:51:08.858Z,99103.31
2022-10-28T07:52:10.164Z,99104.69
2022-10-28T07:53:11.494Z,99101.72
2022-10-28T07:54:12.960Z,99100.63
2022-10-28T07:55:14.284Z,99097.59
2022-10-28T07:56:15.623Z,99104.66
2022-10-28T07:57:16.968Z,99109.38
2022-10-28T07:58:18.288Z,99102.28
2022-10-28T07:59:21.877Z,99105.09
2022-10-28T08:00:25.663Z,99106.34
2022-10-28T08:01:27.090Z,99101.78
2022-10-28T08:02:28.578Z,99095.00
2022-10-28T08:03:34.665Z,99102.41
2022-10-28T08:04:39.655Z,99102.53
2022-10-28T08:05:41.225Z,99095.75
2022-10-28T08:06:42.630Z,99098.13
2022-10-28T08:07:44.020Z,99096.66
2022-10-28T08:08:46.459Z,99095.56
2022-10-28T08:09:47.826Z,99100.59
2022-10-28T08:10:49.194Z,99096.81
2022-10-28T08:11:50.520Z,99100.72
2022-10-28T08:12:51.870Z,99098.84
2022-10-28T08:13:53.428Z,99100.56
2022-10-28T08:14:54.838Z,99105.25
2022-10-28T08:15:56.193Z,99110.25
2022-10-28T08:16:57.565Z,99114.19
2022-10-28T08:17:58.925Z,99118.91
2022-10-28T08:19:04.004Z,99123.59
2022-10-28T08:20:08.318Z,99127.53
2022-10-28T08:21:10.462Z,99141.69
2022-10-28T08:22:11.798Z,99129.41
2022-10-28T08:23:13.150Z,99131.44
2022-10-28T08:24:14.516Z,99127.31
2022-10-28T08:25:15.868Z,99127.47
2022-10-28T08:26:17.225Z,99128.69
2022-10-28T08:27:18.577Z,99125.38
2022-10-28T08:28:20.175Z,99131.66
2022-10-28T08:29:23.414Z,99124.06
2022-10-28T08:30:27.638Z,99124.97
2022-10-28T08:31:28.971Z,99120.06
2022-10-28T08:32:30.385Z,99113.72
2022-10-28T08:33:31.727Z,99114.22
2022-10-28T08:34:33.016Z,99112.41
2022-10-28T08:35:34.355Z,99109.22
2022-10-28T08:36:35.742Z,99109.34
2022-10-28T08:37:37.087Z,99103.66
2022-10-28T08:38:42.874Z,99094.19
2022-10-28T08:39:46.549Z,99102.69
2022-10-28T08:40:56.737Z,99095.56
2022-10-28T08:42:08.732Z,99112.50
2022-10-28T08:43:20.723Z,99100.38
2022-10-28T08:44:46.241Z,99100.50
2022-10-28T08:45:56.256Z,99104.75
2022-10-28T08:46:57.663Z,99106.44
2022-10-28T08:49:12.264Z,99115.69
2022-10-28T08:50:18.512Z,99112.38
2022-10-28T08:51:30.536Z,99109.84
2022-10-28T08:52:31.811Z,99116.41
2022-10-28T08:53:41.603Z,99113.09
2022-10-28T08:54:42.935Z,99118.56
2022-10-28T08:55:46.650Z,99123.59
2022-10-28T08:56:49.714Z,99131.00
2022-10-28T08:57:54.292Z,99134.09
2022-10-28T08:58:58.229Z,99133.75
2022-10-28T08:59:59.611Z,99130.88
2022-10-28T09:01:00.995Z,99132.13
2022-10-28T09:02:17.468Z,99133.81
2022-10-28T09:03:24.204Z,99135.59
2022-10-28T09:04:39.991Z,99134.94
2022-10-28T09:05:42.970Z,99142.88
2022-10-28T09:06:44.324Z,99140.75
2022-10-28T09:07:45.720Z,99143.66
2022-10-28T09:08:48.800Z,99134.59
2022-10-28T09:09:51.098Z,99134.72
2022-10-28T09:11:21.309Z,99138.75
2022-10-28T09:12:44.826Z,99128.59
2022-10-28T09:13:53.568Z,99133.63
2022-10-28T09:15:01.087Z,99145.13
2022-10-28T09:16:20.481Z,99140.97
2022-10-28T09:17:34.116Z,99131.81
2022-10-28T09:18:38.415Z,99130.81
2022-10-28T09:19:53.475Z,99133.59
2022-10-28T09:20:56.115Z,99135.97
2022-10-28T09:22:00.343Z,99133.38
2022-10-28T09:23:13.703Z,99122.31
2022-10-28T09:24:27.299Z,99122.63
2022-10-28T09:25:36.715Z,99120.09
2022-10-28T09:26:49.389Z,99115.50
2022-10-28T09:28:02.932Z,99106.66
2022-10-28T09:29:04.315Z,99101.41
2022-10-28T09:30:05.802Z,99088.41
2022-10-28T09:31:27.417Z,99083.38
2022-10-28T09:32:36.357Z,99073.09
2022-10-28T09:33:43.190Z,99068.41
2022-10-28T09:34:46.888Z,99080.13
2022-10-28T09:35:49.402Z,99081.72
2022-10-28T09:36:55.645Z,99077.78
2022-10-28T09:38:02.142Z,99097.69
2022-10-28T09:39:05.149Z,99102.28
2022-10-28T09:40:09.531Z,99110.69
2022-10-28T09:41:14.182Z,99107.66
2022-10-28T09:42:26.406Z,99111.88
2022-10-28T09:43:36.968Z,99103.06
2022-10-28T09:44:59.720Z,99099.16
2022-10-28T09:46:10.062Z,99099.16
2022-10-28T09:47:21.376Z,99100.38
2022-10-28T09:48:28.092Z,99102.75
2022-10-28T09:49:34.272Z,99099.72
2022-10-28T09:50:35.591Z,99098.72
2022-10-28T09:51:55.464Z,99094.25
2022-10-28T09:52:56.765Z,99095.31
2022-10-28T09:53:58.835Z,99101.13
2022-10-28T09:55:03.057Z,99088.16
2022-10-28T09:56:05.087Z,99089.59
2022-10-28T09:57:06.603Z,99103.44
2022-10-28T09:58:09.932Z,99098.97
2022-10-28T09:59:13.227Z,99105.22
2022-10-28T10:00:15.745Z,99097.69
2022-10-28T10:01:17.979Z,99094.41
2022-10-28T10:02:25.380Z,99096.06
2022-10-28T10:03:26.771Z,99103.09
2022-10-28T10:04:28.895Z,99107.56
2022-10-28T10:05:33.288Z,99106.53
2022-10-28T10:06:39.459Z,99102.09
2022-10-28T10:07:44.265Z,99103.88
2022-10-28T10:08:45.707Z,99109.22
2022-10-28T10:09:47.042Z,99106.34
2022-10-28T10:10:50.395Z,99100.91
2022-10-28T10:11:53.228Z,99100.91
2022-10-28T10:12:57.518Z,99106.03
2022-10-28T10:14:03.068Z,99102.19
2022-10-28T10:15:05.279Z,99097.41
2022-10-28T10:16:13.111Z,99103.31
2022-10-28T10:17:20.088Z,99109.16
2022-10-28T10:18:27.005Z,99114.16
2022-10-28T10:19:28.302Z,99113.50
2022-10-28T10:20:44.942Z,99119.66
2022-10-28T10:21:46.239Z,99113.22
2022-10-28T10:22:48.763Z,99114.41
2022-10-28T10:23:50.106Z,99112.59
2022-10-28T10:24:51.453Z,99115.28
2022-10-28T10:26:08.053Z,99104.25
2022-10-28T10:27:16.959Z,99105.91
2022-10-28T10:28:18.385Z,99106.66
2022-10-28T10:29:20.594Z,99100.50
2022-10-28T10:30:25.277Z,99099.72
2022-10-28T10:31:27.529Z,99096.31
2022-10-28T10:32:31.305Z,99088.25
2022-10-28T10:33:36.618Z,99078.63
2022-10-28T10:34:37.971Z,99080.16
2022-10-28T10:35:40.254Z,99074.47
2022-10-28T10:36:48.763Z,99061.78
2022-10-28T10:37:51.389Z,99051.69
2022-10-28T10:38:53.838Z,99050.91
2022-10-28T10:40:13.961Z,99052.31
2022-10-28T10:41:32.704Z,99052.59
2022-10-28T10:42:39.211Z,99060.69
2022-10-28T10:43:48.078Z,99072.22
2022-10-28T10:44:56.648Z,99083.34
2022-10-28T10:46:01.118Z,99096.03
2022-10-28T10:47:06.010Z,99092.19
2022-10-28T10:48:12.342Z,99094.13
2022-10-28T10:49:14.546Z,99095.75
2022-10-28T10:50:22.987Z,99104.66
2022-10-28T10:51:25.419Z,99109.78
2022-10-28T10:52:26.805Z,99112.94
2022-10-28T10:53:30.177Z,99110.22
2022-10-28T10:54:32.475Z,99110.22
2022-10-28T10:55:38.679Z,99111.44
2022-10-28T10:56:40.028Z,99119.19
2022-10-28T10:57:45.878Z,99121.94
2022-10-28T10:58:49.556Z,99125.06
2022-10-28T10:59:52.165Z,99130.09
2022-10-28T11:00:55.164Z,99131.66
2022-10-28T11:01:57.520Z,99135.16
2022-10-28T11:02:59.762Z,99129.75
2022-10-28T11:04:02.656Z,99119.06
2022-10-28T11:05:06.385Z,99116.06
2022-10-28T11:06:24.732Z,99113.34
2022-10-28T11:07:26.870Z,99114.19
2022-10-28T11:08:28.206Z,99111.09
2022-10-28T11:09:29.590Z,99099.53
2022-10-28T11:10:32.220Z,99086.44
2022-10-28T11:11:37.450Z,99081.03
2022-10-28T11:12:40.335Z,99072.06
2022-10-28T11:13:45.176Z,99072.50
2022-10-28T11:15:13.874Z,99065.56
2022-10-28T11:16:19.616Z,99075.81
2022-10-28T11:17:25.459Z,99070.34
2022-10-28T11:18:26.969Z,99069.56
2022-10-28T11:19:29.328Z,99058.03
2022-10-28T11:20:49.779Z,99059.16
2022-10-28T11:22:00.156Z,99059.56
2022-10-28T11:23:20.375Z,99055.06
2022-10-28T11:24:21.701Z,99061.56
2022-10-28T11:25:25.740Z,99062.44
2022-10-28T11:26:28.809Z,99062.97
2022-10-28T11:27:30.119Z,99066.94
2022-10-28T11:28:31.391Z,99063.88
2022-10-28T11:29:33.029Z,99068.56
2022-10-28T11:30:53.319Z,99067.06
2022-10-28T11:31:54.647Z,99067.59
2022-10-28T11:33:08.477Z,99068.78
2022-10-28T11:34:26.568Z,99074.25
2022-10-28T11:35:27.920Z,99074.66
2022-10-28T11:36:29.230Z,99075.13
2022-10-28T11:37:42.235Z,99073.97
2022-10-28T11:39:05.148Z,99066.66
2022-10-28T11:40:21.596Z,99064.34
2022-10-28T11:41:29.175Z,99059.28
2022-10-28T11:42:33.493Z,99053.47
2022-10-28T11:43:54.572Z,99048.88
2022-10-28T11:45:05.325Z,99051.97
2022-10-28T11:46:25.507Z,99052.34
2022-10-28T11:47:29.796Z,99048.50
2022-10-28T11:48:49.696Z,99036.63
2022-10-28T11:49:51.008Z,99033.47
2022-10-28T11:50:52.279Z,99025.75
2022-10-28T11:51:58.780Z,99023.06
2022-10-28T11:53:00.110Z,99034.34
2022-10-28T11:54:12.266Z,99037.31
2022-10-28T11:55:19.460Z,99031.84
2022-10-28T11:56:23.824Z,99033.97
2022-10-28T11:57:36.134Z,99030.50
2022-10-28T11:58:44.774Z,99031.22
2022-10-28T11:59:49.116Z,99046.59
2022-10-28T12:01:00.459Z,99029.31
2022-10-28T12:02:01.934Z,99030.41
2022-10-28T12:03:09.535Z,99026.94
2022-10-28T12:04:25.499Z,99025.47
2022-10-28T12:05:32.914Z,99027.09
2022-10-28T12:06:37.204Z,99023.69
2022-10-28T12:07:57.358Z,99025.38
2022-10-28T12:08:58.694Z,99024.78
2022-10-28T12:10:15.683Z,99028.72
2022-10-28T12:11:16.987Z,99021.09
2022-10-28T12:12:41.255Z,99031.50
2022-10-28T12:13:48.511Z,99022.78
2022-10-28T12:14:49.871Z,99020.13
2022-10-28T12:16:06.456Z,99028.28
2022-10-28T12:17:19.658Z,99024.16
2022-10-28T12:18:28.594Z,99016.13
2022-10-28T12:19:32.806Z,99014.31
2022-10-28T12:20:42.604Z,99020.59
2022-10-28T12:21:45.916Z,99019.16
2022-10-28T12:22:55.158Z,99025.81
2022-10-28T12:23:58.101Z,99022.13
2022-10-28T12:25:01.565Z,99021.47
2022-10-28T12:26:06.246Z,99025.41
2022-10-28T12:27:17.015Z,99027.75
2022-10-28T12:28:21.749Z,99022.47
2022-10-28T12:29:31.180Z,99014.06
2022-10-28T12:30:35.456Z,99016.78
2022-10-28T12:31:44.558Z,99016.06
2022-10-28T12:32:48.352Z,99014.56
2022-10-28T12:33:52.969Z,99009.56
2022-10-28T12:34:59.126Z,99011.94
2022-10-28T12:36:03.222Z,99005.06
2022-10-28T12:37:08.001Z,99015.19
2022-10-28T12:38:19.847Z,99009.53
2022-10-28T12:39:25.301Z,99010.09
2022-10-28T12:40:29.222Z,99010.22
2022-10-28T12:41:44.340Z,99006.47
2022-10-28T12:42:49.710Z,99005.41
2022-10-28T12:43:57.843Z,99003.53
2022-10-28T12:45:01.654Z,98998.22
2022-10-28T12:46:03.584Z,98996.00
2022-10-28T12:47:23.614Z,98999.13
2022-10-28T12:48:31.387Z,99006.19
2022-10-28T12:49:49.569Z,99002.75
2022-10-28T12:51:01.795Z,99002.78
2022-10-28T12:52:09.702Z,99004.72
2022-10-28T12:53:29.603Z,99000.84
2022-10-28T12:54:37.368Z,98997.00
2022-10-28T12:55:58.808Z,99011.28
2022-10-28T12:57:13.512Z,99008.97
2022-10-28T12:58:17.377Z,99001.63
2022-10-28T12:59:21.541Z,99003.91
2022-10-28T13:00:28.071Z,99004.72
2022-10-28T13:01:30.997Z,99003.13
2022-10-28T13:02:37.940Z,99002.41
2022-10-28T13:03:39.657Z,99002.78
2022-10-28T13:04:41.182Z,99003.13
2022-10-28T13:05:48.065Z,98996.56
2022-10-28T13:07:04.621Z,98998.06
2022-10-28T13:08:24.846Z,99001.56
2022-10-28T13:09:44.811Z,98996.91
2022-10-28T13:10:50.206Z,99000.00
2022-10-28T13:12:10.308Z,99001.88
2022-10-28T13:13:26.245Z,98999.91
2022-10-28T13:14:46.537Z,98985.63
2022-10-28T13:15:53.640Z,98987.56
2022-10-28T13:17:13.748Z,98990.59
2022-10-28T13:18:21.004Z,98993.69
2022-10-28T13:19:22.448Z,98989.06
2022-10-28T13:20:37.642Z,98987.16
2022-10-28T13:21:42.042Z,98987.63
2022-10-28T13:22:58.979Z,98994.19
2022-10-28T13:24:23.810Z,98999.19
2022-10-28T13:25:42.724Z,98988.75
2022-10-28T13:26:45.241Z,98988.66
2022-10-28T13:27:47.005Z,98991.31
2022-10-28T13:28:49.532Z,98992.81
2022-10-28T13:29:52.628Z,98993.56
2022-10-28T13:30:55.530Z,98990.81
2022-10-28T13:32:00.055Z,98995.03
2022-10-28T13:33:05.390Z,98992.72
2022-10-28T13:34:07.796Z,98981.91
2022-10-28T13:35:22.619Z,98988.53
2022-10-28T13:36:34.883Z,98986.22
2022-10-28T13:37:36.774Z,98990.13
2022-10-28T13:38:38.745Z,98987.03
2022-10-28T13:39:43.136Z,98985.84
2022-10-28T13:40:47.906Z,98987.00
2022-10-28T13:42:09.520Z,98982.34
2022-10-28T13:43:21.098Z,98989.69
2022-10-28T13:44:24.755Z,98985.84
2022-10-28T13:45:46.257Z,98980.84